Time;durP1;ratioP1;P1;durP2;ratioP2;P2;SDS_P1;SDS_P2;PMS_P1;PMS_P2;Temp;Humidity;BMP_temperature;BMP_pressure;BME280_temperature;BME280_humidity;BME280_pressure;Samples;Min_cycle;Max_cycle;Signal;HPM_P1;HPM_P2
2022/06/16 00:00:15;;;;;;;2.95;2.03;;;14.30;99.90;;;;;;4950266;28;20082;-73
2022/06/16 00:02:50;;;;;;;2.65;1.98;;;14.20;99.90;;;;;;4971431;28;20831;-73
2022/06/16 00:05:28;;;;;;;2.80;2.00;;;14.10;99.90;;;;;;4984397;28;20046;-73
2022/06/16 00:07:54;;;;;;;3.28;2.13;;;14.10;99.90;;;;;;4977908;28;20045;-72
2022/06/16 00:10:20;;;;;;;5.18;2.60;;;14.00;99.90;;;;;;4994184;28;20053;-73
2022/06/16 00:12:46;;;;;;;3.58;1.85;;;14.00;99.90;;;;;;4996192;28;20809;-72
2022/06/16 00:15:17;;;;;;;3.75;1.98;;;14.00;99.90;;;;;;4979435;28;20046;-73
2022/06/16 00:17:43;;;;;;;3.45;2.35;;;14.00;99.90;;;;;;4980134;28;20172;-73
2022/06/16 00:20:09;;;;;;;2.80;1.77;;;14.00;99.90;;;;;;4978180;28;20151;-73
2022/06/16 00:22:36;;;;;;;2.78;2.03;;;13.90;99.90;;;;;;4981136;28;20050;-73
2022/06/16 00:25:03;;;;;;;4.45;2.50;;;13.90;99.90;;;;;;4964275;28;20697;-73
2022/06/16 00:27:29;;;;;;;6.05;2.83;;;13.90;99.90;;;;;;4982083;28;20855;-73
2022/06/16 00:29:54;;;;;;;4.88;2.47;;;13.90;99.90;;;;;;4977662;28;20050;-73
2022/06/16 00:32:20;;;;;;;4.85;2.38;;;13.80;99.90;;;;;;4982441;28;20126;-74
2022/06/16 00:34:46;;;;;;;3.47;3.03;;;13.70;99.90;;;;;;4979994;28;20057;-74
2022/06/16 00:37:12;;;;;;;4.38;2.55;;;13.70;99.90;;;;;;4979300;28;20053;-74
2022/06/16 00:39:37;;;;;;;1.88;1.77;;;13.70;99.90;;;;;;4990729;28;20062;-73
2022/06/16 00:42:11;;;;;;;3.53;2.10;;;13.60;99.90;;;;;;4982628;28;20053;-73
2022/06/16 00:44:40;;;;;;;2.17;1.80;;;13.50;99.90;;;;;;4967493;28;20042;-72
2022/06/16 00:47:06;;;;;;;2.75;1.92;;;13.50;99.90;;;;;;4964286;28;20053;-73
2022/06/16 00:49:35;;;;;;;3.53;2.60;;;13.40;99.90;;;;;;4972911;28;20046;-73
2022/06/16 00:52:07;;;;;;;4.18;2.97;;;13.50;99.90;;;;;;4970501;28;20053;-74
2022/06/16 00:54:40;;;;;;;4.97;3.73;;;13.50;99.90;;;;;;4981905;28;20052;-73
2022/06/16 00:57:13;;;;;;;3.47;3.03;;;13.40;99.90;;;;;;4986417;28;20144;-73
2022/06/16 00:59:39;;;;;;;3.25;2.88;;;13.20;99.90;;;;;;4971117;28;20049;-73
2022/06/16 01:02:06;;;;;;;8.63;3.72;;;13.40;99.90;;;;;;4981703;28;20140;-74
2022/06/16 01:07:29;;;;;;;4.10;3.03;;;13.30;99.90;;;;;;4973118;28;20157;-74
2022/06/16 01:09:56;;;;;;;3.80;2.30;;;13.30;99.90;;;;;;4981613;28;20053;-74
2022/06/16 01:16:05;;;;;;;4.40;2.60;;;13.30;99.90;;;;;;4981150;28;20092;-73
2022/06/16 01:18:45;;;;;;;5.90;3.13;;;13.20;99.90;;;;;;4977278;28;20050;-73
2022/06/16 01:21:26;;;;;;;4.45;3.40;;;13.10;99.90;;;;;;4972155;28;20090;-73
2022/06/16 01:24:41;;;;;;;4.45;2.33;;;13.10;99.90;;;;;;4974369;28;20586;-73
2022/06/16 01:27:25;;;;;;;4.55;2.65;;;13.10;99.90;;;;;;4981715;28;20065;-73
2022/06/16 01:30:03;;;;;;;4.32;3.42;;;13.00;99.90;;;;;;4952455;28;20081;-73
2022/06/16 01:32:38;;;;;;;2.97;2.40;;;13.00;99.90;;;;;;4978137;28;20162;-73
2022/06/16 01:35:35;;;;;;;2.28;1.95;;;13.10;99.90;;;;;;4981101;28;20096;-73
2022/06/16 01:38:11;;;;;;;4.50;3.00;;;13.00;99.90;;;;;;4977363;28;20193;-73
2022/06/16 01:40:40;;;;;;;2.55;1.98;;;13.00;99.90;;;;;;4967727;28;20803;-74
2022/06/16 01:43:08;;;;;;;3.58;3.03;;;13.00;99.90;;;;;;4984345;28;20511;-73
2022/06/16 01:45:49;;;;;;;3.47;2.60;;;13.00;99.90;;;;;;4962693;28;20081;-73
2022/06/16 01:48:18;;;;;;;2.45;2.25;;;13.00;99.90;;;;;;4982043;28;20049;-73
2022/06/16 01:50:56;;;;;;;2.58;2.22;;;13.00;99.90;;;;;;4966031;28;20157;-73
2022/06/16 01:53:36;;;;;;;5.18;2.72;;;13.00;99.90;;;;;;4971211;28;20141;-73
2022/06/16 01:56:14;;;;;;;4.18;3.33;;;13.00;99.90;;;;;;4970457;28;20129;-74
2022/06/16 01:58:42;;;;;;;2.88;2.30;;;13.00;99.90;;;;;;4990715;28;20125;-73
2022/06/16 02:01:14;;;;;;;3.38;2.40;;;13.00;99.90;;;;;;4993359;28;20050;-73
2022/06/16 02:03:46;;;;;;;2.90;2.33;;;13.10;99.90;;;;;;4969676;28;20469;-73
2022/06/16 02:06:16;;;;;;;3.90;2.67;;;13.10;99.90;;;;;;4974105;28;20816;-74
2022/06/16 02:08:48;;;;;;;3.20;2.90;;;13.10;99.90;;;;;;4984672;28;20056;-74
2022/06/16 02:11:32;;;;;;;5.55;2.20;;;13.10;99.90;;;;;;4977650;28;20671;-74
2022/06/16 02:14:28;;;;;;;6.22;2.55;;;13.10;99.90;;;;;;4956303;28;20050;-73
2022/06/16 02:16:54;;;;;;;4.63;2.83;;;13.20;99.90;;;;;;4949765;28;20083;-73
2022/06/16 02:19:22;;;;;;;3.97;2.50;;;13.10;99.90;;;;;;4978778;28;20050;-73
2022/06/16 02:21:50;;;;;;;3.92;3.53;;;13.20;99.90;;;;;;4970786;28;20046;-73
2022/06/16 02:24:19;;;;;;;3.33;3.03;;;13.20;99.90;;;;;;4981181;28;20154;-74
2022/06/16 02:26:45;;;;;;;4.38;2.92;;;13.30;99.90;;;;;;4983209;28;20050;-73
2022/06/16 02:29:20;;;;;;;5.78;3.38;;;13.30;99.90;;;;;;4980809;28;20046;-73
2022/06/16 02:31:49;;;;;;;4.90;3.47;;;13.30;99.90;;;;;;4987426;28;20559;-73
2022/06/16 02:34:46;;;;;;;3.88;3.08;;;13.30;99.90;;;;;;4983374;28;20119;-72
2022/06/16 02:37:37;;;;;;;2.67;2.08;;;13.30;99.90;;;;;;4964587;28;20053;-73
2022/06/16 02:40:29;;;;;;;4.78;2.33;;;13.20;99.90;;;;;;4966052;28;20054;-72
2022/06/16 02:43:10;;;;;;;8.50;3.45;;;13.20;99.90;;;;;;4978789;28;20050;-73
2022/06/16 02:45:53;;;;;;;2.47;2.28;;;13.20;99.90;;;;;;4970123;28;20052;-73
2022/06/16 02:48:40;;;;;;;5.85;3.17;;;13.10;99.90;;;;;;4978965;28;20301;-73
2022/06/16 02:51:13;;;;;;;6.40;4.05;;;13.10;99.90;;;;;;4977102;28;20088;-74
2022/06/16 02:54:09;;;;;;;5.10;2.85;;;13.10;99.90;;;;;;4988590;28;20050;-74
2022/06/16 02:56:57;;;;;;;2.80;2.05;;;13.00;99.90;;;;;;4970919;28;20387;-73
2022/06/16 02:59:28;;;;;;;4.65;2.50;;;13.00;99.90;;;;;;4969167;28;20050;-73
2022/06/16 03:02:07;;;;;;;4.45;2.40;;;12.90;99.90;;;;;;4980628;28;20050;-75
2022/06/16 03:04:36;;;;;;;3.75;2.53;;;12.90;99.90;;;;;;4997517;28;20053;-74
2022/06/16 03:07:01;;;;;;;3.60;2.80;;;12.80;99.90;;;;;;4994312;28;20889;-74
2022/06/16 03:09:27;;;;;;;4.43;2.42;;;12.80;99.90;;;;;;4968827;28;20053;-74
2022/06/16 03:11:53;;;;;;;2.90;2.70;;;12.80;99.90;;;;;;4970578;28;20410;-74
2022/06/16 03:14:19;;;;;;;3.63;2.78;;;12.80;99.90;;;;;;4962514;28;20133;-74
2022/06/16 03:16:45;;;;;;;6.32;2.30;;;12.80;99.90;;;;;;4985830;28;20093;-73
2022/06/16 03:19:11;;;;;;;5.38;3.45;;;12.90;99.90;;;;;;4983602;28;20081;-73
2022/06/16 03:21:37;;;;;;;3.25;2.53;;;12.90;99.90;;;;;;4979088;28;20165;-74
2022/06/16 03:24:03;;;;;;;5.03;3.05;;;12.90;99.90;;;;;;4972844;28;20046;-74
2022/06/16 03:26:28;;;;;;;6.13;2.97;;;12.90;99.90;;;;;;4965062;28;20128;-74
2022/06/16 03:28:54;;;;;;;2.78;2.30;;;12.90;99.90;;;;;;4961721;28;20050;-74
2022/06/16 03:31:20;;;;;;;2.80;2.25;;;12.90;99.90;;;;;;4985513;28;20049;-74
2022/06/16 03:33:45;;;;;;;2.33;2.13;;;12.90;99.90;;;;;;4988498;28;20571;-74
2022/06/16 03:36:12;;;;;;;2.80;2.30;;;12.80;99.90;;;;;;4981896;28;20050;-74
2022/06/16 03:38:41;;;;;;;5.72;2.88;;;12.80;99.90;;;;;;4983197;28;20870;-74
2022/06/16 03:41:06;;;;;;;5.20;2.95;;;12.80;99.90;;;;;;4994390;28;20512;-74
2022/06/16 03:43:32;;;;;;;5.78;3.22;;;12.80;99.90;;;;;;4982627;28;20047;-74
2022/06/16 03:45:58;;;;;;;4.38;2.60;;;12.80;99.90;;;;;;4990939;28;20053;-74
2022/06/16 03:48:23;;;;;;;5.72;3.05;;;12.80;99.90;;;;;;4984688;28;20049;-74
2022/06/16 03:50:49;;;;;;;3.10;2.72;;;12.90;99.90;;;;;;4992709;28;20885;-73
2022/06/16 03:53:15;;;;;;;6.28;2.97;;;12.90;99.90;;;;;;4993732;28;20054;-73
2022/06/16 03:55:41;;;;;;;5.65;3.35;;;13.00;99.90;;;;;;4982272;28;20050;-73
2022/06/16 03:58:07;;;;;;;3.40;2.90;;;13.00;99.90;;;;;;4983491;28;20132;-73
2022/06/16 04:00:33;;;;;;;5.15;2.88;;;13.10;99.90;;;;;;4980301;28;20073;-73
2022/06/16 04:05:43;;;;;;;4.38;3.75;;;13.20;99.90;;;;;;4966148;28;20161;-73
2022/06/16 04:08:10;;;;;;;5.95;3.28;;;13.30;99.90;;;;;;4985597;28;20385;-73
2022/06/16 04:10:36;;;;;;;4.85;3.35;;;13.30;99.90;;;;;;4996886;28;20038;-73
2022/06/16 04:13:02;;;;;;;6.18;3.20;;;13.30;99.90;;;;;;5002377;28;20054;-73
2022/06/16 04:15:28;;;;;;;3.20;3.00;;;13.30;99.90;;;;;;4986720;28;20038;-73
2022/06/16 04:17:54;;;;;;;3.47;2.97;;;13.30;99.90;;;;;;4992533;28;20054;-73
2022/06/16 04:20:20;;;;;;;4.43;3.05;;;13.30;99.90;;;;;;4982887;28;20077;-73
2022/06/16 04:22:50;;;;;;;4.13;2.38;;;13.30;99.90;;;;;;4982223;28;20050;-74
2022/06/16 04:25:20;;;;;;;4.70;2.67;;;13.40;99.90;;;;;;4982074;28;20054;-73
2022/06/16 04:27:46;;;;;;;3.45;2.40;;;13.40;99.90;;;;;;4980594;28;20808;-73
2022/06/16 04:30:13;;;;;;;3.92;2.92;;;13.50;99.90;;;;;;4968792;28;20054;-73
2022/06/16 04:32:39;;;;;;;9.57;3.53;;;13.50;99.90;;;;;;4985391;28;20546;-73
2022/06/16 04:35:05;;;;;;;3.00;2.60;;;13.60;99.90;;;;;;4996264;28;20076;-73
2022/06/16 04:37:31;;;;;;;3.38;3.08;;;13.70;99.90;;;;;;4985296;28;20065;-72
2022/06/16 04:39:57;;;;;;;4.03;3.10;;;13.80;99.90;;;;;;4988149;28;20482;-73
2022/06/16 04:42:23;;;;;;;3.40;2.88;;;14.00;99.90;;;;;;4984457;28;20802;-73
2022/06/16 04:44:48;;;;;;;4.63;2.88;;;14.20;99.90;;;;;;4979859;28;20109;-73
2022/06/16 04:47:14;;;;;;;6.40;3.53;;;14.30;99.90;;;;;;4975055;28;20050;-74
2022/06/16 04:49:40;;;;;;;6.95;3.67;;;14.40;99.90;;;;;;4982378;28;20585;-74
2022/06/16 04:52:06;;;;;;;6.15;3.20;;;14.60;99.90;;;;;;4991598;28;20143;-73
2022/06/16 04:54:32;;;;;;;4.82;2.97;;;14.70;99.90;;;;;;4986895;28;20054;-73
2022/06/16 04:56:58;;;;;;;5.35;3.78;;;14.90;99.90;;;;;;4962488;28;20393;-73
2022/06/16 04:59:24;;;;;;;4.55;2.85;;;15.00;99.90;;;;;;4973115;28;20106;-73
2022/06/16 05:01:49;;;;;;;6.25;3.53;;;15.10;99.90;;;;;;4977077;28;20185;-74
2022/06/16 05:04:15;;;;;;;6.22;3.30;;;15.20;99.90;;;;;;4982130;28;20053;-74
2022/06/16 05:06:41;;;;;;;5.60;4.43;;;15.40;99.90;;;;;;4981181;28;20046;-73
2022/06/16 05:09:07;;;;;;;7.90;3.33;;;15.50;99.90;;;;;;4975226;28;20053;-73
2022/06/16 05:11:32;;;;;;;5.28;3.30;;;15.70;99.90;;;;;;4978793;28;20054;-73
2022/06/16 05:14:00;;;;;;;4.78;3.35;;;15.80;99.90;;;;;;4981947;28;20078;-73
2022/06/16 05:16:27;;;;;;;6.65;2.88;;;15.90;99.90;;;;;;4983961;28;20058;-73
2022/06/16 05:18:54;;;;;;;3.90;2.75;;;16.00;99.90;;;;;;4965741;28;20205;-73
2022/06/16 05:21:21;;;;;;;4.20;2.08;;;16.20;99.90;;;;;;4977295;28;20954;-73
2022/06/16 05:23:46;;;;;;;3.58;2.63;;;16.30;99.90;;;;;;4990174;28;20108;-73
2022/06/16 05:26:12;;;;;;;2.80;1.80;;;16.30;99.90;;;;;;4979446;28;20837;-73
2022/06/16 05:28:38;;;;;;;2.30;2.10;;;16.30;99.90;;;;;;4979390;28;20084;-73
2022/06/16 05:31:05;;;;;;;3.78;2.05;;;16.30;99.90;;;;;;4986178;28;20049;-73
2022/06/16 05:33:31;;;;;;;2.70;1.98;;;16.30;99.90;;;;;;4986963;28;20093;-73
2022/06/16 05:36:03;;;;;;;2.15;1.95;;;16.40;99.90;;;;;;4984797;28;20160;-73
2022/06/16 05:38:29;;;;;;;2.85;2.03;;;16.50;99.90;;;;;;4984314;28;20057;-73
2022/06/16 05:41:03;;;;;;;4.90;1.92;;;16.50;99.90;;;;;;4980155;28;20750;-73
2022/06/16 05:43:30;;;;;;;5.80;1.92;;;16.60;99.90;;;;;;4974797;28;20057;-73
2022/06/16 05:45:56;;;;;;;5.20;2.40;;;16.70;99.90;;;;;;4992484;28;20064;-73
2022/06/16 05:48:22;;;;;;;4.90;2.55;;;16.70;99.90;;;;;;4988408;28;20042;-73
2022/06/16 05:50:48;;;;;;;6.53;3.25;;;16.90;99.90;;;;;;4988651;28;20046;-73
2022/06/16 05:53:14;;;;;;;5.28;2.50;;;17.00;99.90;;;;;;4992639;28;20073;-73
2022/06/16 05:55:40;;;;;;;5.38;2.17;;;17.10;99.90;;;;;;4986897;28;20049;-73
2022/06/16 05:58:05;;;;;;;4.57;2.40;;;17.30;99.90;;;;;;4974704;28;20689;-73
2022/06/16 06:00:32;;;;;;;4.63;2.50;;;17.40;99.90;;;;;;4994818;28;20048;-73
2022/06/16 06:02:59;;;;;;;2.67;1.65;;;17.50;99.90;;;;;;4991732;28;20046;-73
2022/06/16 06:05:28;;;;;;;3.90;2.13;;;17.50;99.90;;;;;;4996303;28;20092;-73
2022/06/16 06:16:26;;;;;;;4.68;2.17;;;17.80;99.90;;;;;;4992514;28;20086;-73
2022/06/16 06:18:53;;;;;;;6.68;2.40;;;18.10;99.90;;;;;;5001835;28;20054;-73
2022/06/16 06:21:57;;;;;;;4.32;2.35;;;19.30;99.90;;;;;;4997696;28;20064;-73
2022/06/16 06:24:05;;;;;;;8.50;2.30;;;20.40;99.90;;;;;;4997901;28;21584;-73
2022/06/16 06:26:31;;;;;;;2.75;2.08;;;21.50;99.90;;;;;;4998903;28;20039;-73
2022/06/16 06:28:56;;;;;;;5.43;2.05;;;22.40;99.90;;;;;;5008178;28;20046;-73
2022/06/16 06:31:22;;;;;;;3.05;1.67;;;23.10;99.90;;;;;;4995103;28;20129;-78
2022/06/16 06:33:48;;;;;;;2.85;2.10;;;23.40;98.80;;;;;;5001755;28;20242;-73
2022/06/16 06:36:14;;;;;;;2.30;1.88;;;23.90;98.10;;;;;;4962407;28;20070;-74
2022/06/16 06:38:39;;;;;;;3.95;1.98;;;24.40;97.50;;;;;;4995060;28;20490;-74
2022/06/16 06:41:06;;;;;;;5.35;1.90;;;24.20;96.20;;;;;;4994915;28;20113;-74
2022/06/16 06:43:31;;;;;;;6.13;2.00;;;24.60;95.90;;;;;;5001862;28;20049;-74
2022/06/16 06:45:57;;;;;;;3.10;2.47;;;24.90;94.90;;;;;;5006177;28;20209;-74
2022/06/16 06:48:23;;;;;;;2.22;1.85;;;24.40;94.50;;;;;;5006984;28;20047;-74
2022/06/16 06:50:48;;;;;;;2.15;1.35;;;23.80;94.80;;;;;;5009060;28;20141;-74
2022/06/16 06:53:14;;;;;;;3.20;2.03;;;23.90;95.10;;;;;;5004576;28;20049;-74
2022/06/16 06:55:46;;;;;;;3.78;1.42;;;24.50;94.30;;;;;;4979165;28;20046;-74
2022/06/16 06:58:20;;;;;;;4.25;1.50;;;24.50;91.80;;;;;;4987273;28;20051;-74
2022/06/16 07:00:46;;;;;;;4.20;2.13;;;25.00;92.30;;;;;;4962600;28;20050;-75
2022/06/16 07:03:12;;;;;;;2.80;2.00;;;25.10;92.20;;;;;;4983106;28;20051;-76
2022/06/16 07:05:38;;;;;;;4.03;1.42;;;25.10;91.90;;;;;;4998516;28;20036;-74
2022/06/16 07:08:05;;;;;;;3.17;1.27;;;24.90;92.00;;;;;;5003926;28;20057;-76
2022/06/16 07:10:31;;;;;;;2.35;1.40;;;25.00;91.60;;;;;;5004476;28;20046;-75
2022/06/16 07:12:57;;;;;;;2.33;1.75;;;25.20;90.90;;;;;;5005900;28;20037;-75
2022/06/16 07:15:23;;;;;;;3.75;1.60;;;25.70;90.50;;;;;;4982900;28;20085;-73
2022/06/16 07:17:49;;;;;;;2.55;1.40;;;25.50;90.30;;;;;;5011570;28;20031;-73
2022/06/16 07:20:16;;;;;;;1.20;1.10;;;25.80;90.40;;;;;;5004930;28;20050;-74
2022/06/16 07:22:46;;;;;;;2.72;1.73;;;26.00;90.00;;;;;;5011766;28;20250;-73
2022/06/16 07:25:13;;;;;;;2.05;1.75;;;26.10;87.60;;;;;;5007142;28;20119;-74
2022/06/16 07:27:39;;;;;;;3.03;1.70;;;26.20;87.90;;;;;;5018104;28;20032;-74
2022/06/16 07:30:14;;;;;;;2.33;1.40;;;25.80;87.00;;;;;;5003625;28;20062;-74
2022/06/16 07:32:45;;;;;;;1.75;1.63;;;26.10;86.20;;;;;;5006706;28;20042;-73
2022/06/16 07:35:13;;;;;;;3.17;2.05;;;26.60;84.50;;;;;;5009068;28;20037;-74
2022/06/16 07:37:39;;;;;;;1.23;1.10;;;27.00;85.30;;;;;;5008115;28;20042;-74
2022/06/16 07:40:07;;;;;;;2.55;1.20;;;26.80;84.80;;;;;;5010349;28;20049;-73
2022/06/16 07:42:33;;;;;;;1.80;1.25;;;26.60;84.50;;;;;;5000675;28;20042;-74
2022/06/16 07:45:00;;;;;;;2.00;1.55;;;26.40;84.60;;;;;;4979447;28;20713;-76
2022/06/16 07:47:26;;;;;;;3.63;1.63;;;25.90;83.70;;;;;;4988541;28;20046;-76
2022/06/16 07:49:52;;;;;;;3.20;1.60;;;25.80;84.50;;;;;;4961929;28;20078;-76
2022/06/16 07:52:18;;;;;;;2.08;1.80;;;26.40;83.90;;;;;;4977677;28;20054;-76
2022/06/16 07:54:44;;;;;;;2.95;1.48;;;27.00;83.40;;;;;;4987301;28;20047;-76
2022/06/16 07:57:11;;;;;;;1.45;1.35;;;26.70;81.50;;;;;;4985973;28;20030;-75
2022/06/16 07:59:36;;;;;;;1.67;1.20;;;26.30;77.70;;;;;;4993158;28;20042;-77
2022/06/16 08:02:03;;;;;;;2.10;1.20;;;25.80;80.40;;;;;;4956238;28;20475;-76
2022/06/16 08:04:30;;;;;;;3.40;1.50;;;25.70;80.40;;;;;;4989544;28;20086;-75
2022/06/16 08:07:02;;;;;;;1.77;1.20;;;25.80;80.60;;;;;;4980618;28;20055;-73
2022/06/16 08:09:38;;;;;;;1.52;1.30;;;26.00;79.10;;;;;;4995657;28;20092;-74
2022/06/16 08:12:07;;;;;;;3.05;1.60;;;25.60;76.00;;;;;;4985421;28;20057;-75
2022/06/16 08:14:44;;;;;;;1.80;1.35;;;25.20;76.80;;;;;;4962884;28;20061;-74
2022/06/16 08:17:15;;;;;;;3.00;2.15;;;25.50;77.70;;;;;;4985930;28;20160;-74
2022/06/16 08:19:41;;;;;;;2.67;1.45;;;25.20;77.30;;;;;;4983287;28;20624;-76
2022/06/16 08:22:07;;;;;;;2.42;1.52;;;25.40;77.90;;;;;;4991100;28;20164;-77
2022/06/16 08:24:33;;;;;;;3.05;1.77;;;25.20;77.70;;;;;;4986560;28;20072;-73
2022/06/16 08:27:02;;;;;;;1.80;1.40;;;25.30;77.50;;;;;;4979090;28;20470;-74
2022/06/16 08:29:27;;;;;;;2.92;1.58;;;25.00;77.20;;;;;;4976660;28;20054;-73
2022/06/16 08:31:55;;;;;;;2.10;1.60;;;25.00;77.60;;;;;;4985939;28;20062;-74
2022/06/16 08:34:20;;;;;;;3.35;2.45;;;25.90;77.00;;;;;;4979347;28;20491;-74
2022/06/16 08:36:46;;;;;;;2.97;1.40;;;25.60;76.00;;;;;;4987026;28;20687;-73
2022/06/16 08:39:12;;;;;;;2.30;2.10;;;26.30;76.20;;;;;;4985481;28;20057;-74
2022/06/16 08:41:50;;;;;;;2.50;1.90;;;26.00;76.00;;;;;;4990427;28;20056;-74
2022/06/16 08:44:32;;;;;;;3.70;1.80;;;25.80;73.00;;;;;;4991112;28;20456;-74
2022/06/16 08:47:14;;;;;;;1.67;1.55;;;25.30;75.50;;;;;;4988588;28;20058;-73
2022/06/16 08:49:46;;;;;;;;;;;25.10;76.50;;;;;;4974150;28;20046;-73
2022/06/16 08:52:40;;;;;;;3.08;1.60;;;25.50;75.20;;;;;;4983471;28;20008;-73
2022/06/16 08:55:16;;;;;;;3.15;1.70;;;25.60;74.10;;;;;;4991505;28;20092;-73
2022/06/16 08:58:08;;;;;;;3.10;1.95;;;25.90;74.20;;;;;;4987221;28;20461;-73
2022/06/16 09:00:45;;;;;;;3.67;2.00;;;26.00;72.90;;;;;;4985620;28;20073;-74
2022/06/16 09:03:28;;;;;;;3.92;2.20;;;26.40;73.00;;;;;;4980837;28;20286;-73
2022/06/16 09:06:17;;;;;;;2.03;1.80;;;25.60;72.90;;;;;;4988209;28;20050;-74
2022/06/16 09:08:45;;;;;;;2.25;1.70;;;26.40;75.30;;;;;;4971446;28;20046;-74
2022/06/16 09:11:22;;;;;;;4.10;1.98;;;26.80;75.10;;;;;;4993017;28;20054;-74
2022/06/16 09:15:10;;;;;;;3.78;2.03;;;27.30;73.50;;;;;;4989918;28;20573;-74
2022/06/16 09:17:20;;;;;;;2.13;1.75;;;26.50;73.00;;;;;;4984696;28;20058;-74
2022/06/16 09:19:57;;;;;;;2.25;1.75;;;27.10;75.00;;;;;;4986533;28;20355;-74
2022/06/16 09:22:58;;;;;;;3.53;1.80;;;27.10;75.40;;;;;;4986686;28;20568;-74
2022/06/16 09:25:29;;;;;;;2.75;2.55;;;27.60;73.80;;;;;;4976258;28;20065;-74
2022/06/16 09:28:01;;;;;;;4.40;2.30;;;27.20;73.80;;;;;;4990701;28;20046;-74
2022/06/16 09:30:34;;;;;;;4.60;2.20;;;26.90;72.50;;;;;;4985610;28;20046;-74
2022/06/16 09:33:33;;;;;;;5.43;2.78;;;26.50;72.20;;;;;;4989914;28;20054;-73
2022/06/16 09:36:07;;;;;;;2.88;2.00;;;26.10;72.10;;;;;;4959748;28;20192;-74
2022/06/16 09:38:39;;;;;;;2.70;2.00;;;25.50;74.30;;;;;;4982901;28;20050;-73
2022/06/16 09:44:13;;;;;;;3.80;2.28;;;24.70;74.60;;;;;;4967865;28;20105;-73
2022/06/16 09:46:46;;;;;;;4.05;3.05;;;24.60;75.20;;;;;;4978606;28;20053;-73
2022/06/16 09:49:17;;;;;;;5.32;3.08;;;24.60;75.50;;;;;;4981675;28;20298;-73
2022/06/16 09:51:58;;;;;;;3.65;3.08;;;24.30;74.20;;;;;;4982984;28;20097;-73
2022/06/16 09:54:32;;;;;;;3.72;3.00;;;24.40;74.50;;;;;;4984554;28;20046;-73
2022/06/16 09:58:02;;;;;;;5.10;3.10;;;24.10;75.50;;;;;;4982770;28;20077;-73
2022/06/16 10:00:35;;;;;;;6.88;3.33;;;24.40;75.20;;;;;;4857063;29;20330;-74
2022/06/16 10:03:17;;;;;;;3.30;2.45;;;24.40;75.40;;;;;;4852215;29;20057;-73
2022/06/16 10:05:58;;;;;;;3.67;2.85;;;24.80;76.00;;;;;;4926658;28;20144;-72
2022/06/16 10:08:38;;;;;;;4.70;2.90;;;25.10;75.40;;;;;;4975908;28;20053;-72
2022/06/16 10:11:26;;;;;;;4.15;2.95;;;25.30;72.30;;;;;;4979132;28;20058;-72
2022/06/16 10:14:16;;;;;;;4.82;2.88;;;25.60;73.20;;;;;;4977810;28;20054;-73
2022/06/16 10:17:07;;;;;;;7.22;3.15;;;25.50;71.70;;;;;;4983705;28;20485;-73
2022/06/16 10:19:38;;;;;;;2.95;2.67;;;25.70;73.20;;;;;;4970003;28;20065;-73
2022/06/16 10:22:05;;;;;;;3.20;2.97;;;25.60;73.10;;;;;;4981693;28;20052;-73
2022/06/16 10:24:47;;;;;;;3.40;2.15;;;26.00;74.70;;;;;;4969213;28;20046;-73
2022/06/16 10:27:15;;;;;;;3.20;2.90;;;25.80;72.90;;;;;;4987558;28;20045;-73
2022/06/16 10:29:56;;;;;;;5.00;2.97;;;25.60;74.60;;;;;;4960505;28;20453;-73
2022/06/16 10:32:44;;;;;;;3.33;3.03;;;25.40;71.40;;;;;;4972875;28;20086;-73
2022/06/16 10:35:21;;;;;;;3.22;2.85;;;25.20;72.20;;;;;;4981296;28;20465;-73
2022/06/16 10:37:51;;;;;;;4.53;2.63;;;25.20;73.30;;;;;;4982915;28;20043;-73
2022/06/16 10:40:29;;;;;;;5.30;2.95;;;25.20;73.80;;;;;;4983781;28;20125;-74
2022/06/16 10:43:16;;;;;;;3.47;2.75;;;25.00;71.80;;;;;;4978385;28;20058;-73
2022/06/16 10:45:52;;;;;;;3.78;2.60;;;25.20;71.90;;;;;;4969898;28;20054;-71
2022/06/16 10:48:29;;;;;;;3.88;3.20;;;25.60;74.20;;;;;;4978975;28;20042;-72
2022/06/16 10:51:18;;;;;;;4.90;2.95;;;25.80;72.90;;;;;;4968678;28;20640;-77
2022/06/16 10:53:47;;;;;;;4.75;2.38;;;25.10;71.30;;;;;;4970446;28;20054;-76
2022/06/16 10:56:22;;;;;;;3.97;2.72;;;25.20;73.60;;;;;;4980478;28;20152;-77
2022/06/16 10:58:47;;;;;;;4.88;2.78;;;25.30;72.70;;;;;;4981345;28;20702;-77
2022/06/16 11:01:29;;;;;;;3.72;2.55;;;25.50;73.10;;;;;;4979365;28;20046;-78
2022/06/16 11:04:04;;;;;;;;;;;25.20;74.20;;;;;;4973084;28;20054;-78
2022/06/16 11:06:30;;;;;;;3.13;2.70;;;24.60;72.30;;;;;;4982571;28;19932;-76
2022/06/16 11:09:04;;;;;;;2.65;2.33;;;24.70;74.60;;;;;;4980841;28;20811;-77
2022/06/16 11:12:12;;;;;;;4.95;3.05;;;24.50;71.50;;;;;;4977116;28;20529;-75
2022/06/16 11:14:48;;;;;;;3.50;3.20;;;24.50;70.60;;;;;;4958642;28;20054;-78
2022/06/16 11:17:22;;;;;;;4.50;2.95;;;24.00;73.40;;;;;;4990045;28;20060;-77
2022/06/16 11:20:27;;;;;;;3.70;2.78;;;24.00;73.30;;;;;;4985001;28;20559;-78
2022/06/16 11:22:57;;;;;;;4.13;2.70;;;24.10;73.80;;;;;;4979841;28;20062;-75
2022/06/16 11:25:30;;;;;;;3.78;2.70;;;24.50;73.20;;;;;;4975887;28;20073;-77
2022/06/16 11:28:20;;;;;;;4.38;3.00;;;24.20;72.60;;;;;;4975229;28;20058;-73
2022/06/16 11:30:47;;;;;;;4.35;2.85;;;23.70;73.00;;;;;;4973598;28;20051;-73
2022/06/16 11:36:37;;;;;;;3.97;3.00;;;23.90;72.20;;;;;;4975091;28;20055;-73
2022/06/16 11:39:21;;;;;;;4.18;3.33;;;23.80;72.60;;;;;;4966780;28;20058;-74
2022/06/16 11:41:50;;;;;;;6.13;3.13;;;24.10;71.80;;;;;;4980286;28;20729;-69
2022/06/16 11:44:44;;;;;;;4.00;2.90;;;23.80;72.20;;;;;;4983802;28;20143;-70
2022/06/16 11:47:31;;;;;;;3.05;2.60;;;23.80;72.40;;;;;;4954052;28;20405;-72
2022/06/16 11:50:11;;;;;;;6.55;3.03;;;23.80;72.40;;;;;;4964022;28;20050;-72
2022/06/16 11:52:59;;;;;;;3.90;3.47;;;23.80;72.10;;;;;;4972373;28;20058;-74
2022/06/16 11:55:40;;;;;;;4.93;2.75;;;24.00;72.60;;;;;;4956993;28;20552;-72
2022/06/16 11:58:30;;;;;;;7.40;3.30;;;24.20;72.90;;;;;;4984412;28;20046;-73
2022/06/16 12:01:09;;;;;;;3.00;2.70;;;24.10;72.30;;;;;;4977189;28;20128;-71
2022/06/16 12:03:49;;;;;;;7.35;2.65;;;23.80;73.00;;;;;;4972038;28;20050;-72
2022/06/16 12:06:33;;;;;;;3.15;2.83;;;23.80;73.40;;;;;;4972600;28;20542;-72
2022/06/16 12:09:13;;;;;;;3.30;2.72;;;23.90;73.00;;;;;;4966777;28;20463;-72
2022/06/16 12:11:49;;;;;;;6.13;3.13;;;23.50;73.80;;;;;;4944362;28;20050;-72
2022/06/16 12:14:33;;;;;;;3.70;2.80;;;23.60;73.90;;;;;;4974566;28;20061;-72
2022/06/16 12:17:10;;;;;;;3.60;2.97;;;23.80;75.00;;;;;;4976575;28;20066;-73
2022/06/16 12:20:01;;;;;;;3.65;2.83;;;23.60;73.40;;;;;;4977374;28;20791;-73
2022/06/16 12:22:31;;;;;;;3.83;3.05;;;23.60;73.10;;;;;;4982582;28;20128;-72
2022/06/16 12:25:17;;;;;;;4.90;2.97;;;23.50;74.10;;;;;;4977559;28;20062;-71
2022/06/16 12:28:12;;;;;;;6.45;3.08;;;23.60;74.40;;;;;;4969498;28;21453;-73
2022/06/16 12:30:46;;;;;;;5.43;3.35;;;23.80;74.00;;;;;;4975987;28;20401;-73
2022/06/16 12:33:49;;;;;;;3.35;3.00;;;23.90;74.40;;;;;;4980075;28;20529;-74
2022/06/16 12:36:23;;;;;;;4.80;3.00;;;23.60;73.90;;;;;;4950462;28;20059;-74
2022/06/16 12:38:54;;;;;;;3.13;2.83;;;23.40;74.00;;;;;;4977941;28;20050;-74
2022/06/16 12:41:34;;;;;;;3.83;3.15;;;23.30;73.80;;;;;;4973563;28;20050;-74
2022/06/16 12:44:17;;;;;;;3.88;3.15;;;23.30;74.00;;;;;;4974737;28;20128;-73
2022/06/16 12:46:52;;;;;;;4.47;3.28;;;23.00;73.10;;;;;;4976434;28;20257;-72
2022/06/16 12:49:28;;;;;;;4.10;2.97;;;22.90;75.00;;;;;;4969372;28;20050;-73
2022/06/16 12:52:03;;;;;;;4.82;2.95;;;23.10;73.30;;;;;;4977700;28;20777;-73
2022/06/16 12:54:47;;;;;;;3.78;2.40;;;22.90;74.10;;;;;;4953739;28;20390;-73
2022/06/16 12:57:19;;;;;;;6.38;3.17;;;22.90;73.80;;;;;;4959819;28;20184;-73
2022/06/16 12:59:57;;;;;;;5.22;2.92;;;22.90;73.60;;;;;;4981463;28;20112;-72
2022/06/16 13:02:29;;;;;;;4.70;3.15;;;22.90;74.10;;;;;;4966628;28;20074;-72
2022/06/16 13:04:58;;;;;;;3.03;2.40;;;22.70;74.00;;;;;;4976319;28;20109;-72
2022/06/16 13:07:27;;;;;;;3.05;2.60;;;23.00;74.90;;;;;;4975392;28;20046;-72
2022/06/16 13:09:53;;;;;;;4.57;2.65;;;23.20;75.30;;;;;;4968409;28;20090;-73
2022/06/16 13:12:25;;;;;;;3.47;2.95;;;23.00;74.90;;;;;;4978624;28;20179;-73
2022/06/16 13:15:15;;;;;;;2.13;2.00;;;23.10;73.80;;;;;;4975041;28;20053;-73
2022/06/16 13:18:18;;;;;;;3.63;2.75;;;23.20;74.20;;;;;;4978113;28;20068;-73
2022/06/16 13:20:48;;;;;;;3.03;2.30;;;22.80;72.80;;;;;;4954418;28;20081;-72
2022/06/16 13:23:27;;;;;;;6.53;2.45;;;22.70;74.10;;;;;;4978206;28;20740;-72
2022/06/16 13:26:06;;;;;;;6.35;2.97;;;22.70;74.70;;;;;;4980164;28;20057;-74
2022/06/16 13:28:37;;;;;;;4.03;2.60;;;22.80;74.70;;;;;;4978999;28;20045;-72
2022/06/16 13:31:09;;;;;;;3.75;2.33;;;22.70;74.70;;;;;;4973640;28;20061;-74
2022/06/16 13:33:48;;;;;;;2.40;2.08;;;22.70;75.40;;;;;;4983069;28;20046;-73
2022/06/16 13:36:39;;;;;;;3.95;2.38;;;22.70;76.20;;;;;;4956067;28;20410;-73
2022/06/16 13:39:07;;;;;;;3.40;2.47;;;23.20;77.10;;;;;;4971331;28;20658;-72
2022/06/16 13:41:42;;;;;;;3.10;2.63;;;23.50;73.80;;;;;;4956352;28;20059;-73